createdAt,value
2022-12-24T00:03:47.522Z,10.8
2022-12-24T00:08:57.321Z,10.8
2022-12-24T00:14:10.023Z,10.8
2022-12-24T00:24:42.228Z,10.7
2022-12-24T00:29:55.017Z,10.7
2022-12-24T00:40:27.834Z,10.7
2022-12-24T00:45:47.914Z,10.7
2022-12-24T01:01:50.715Z,10.7
2022-12-24T01:12:20.235Z,10.7
2022-12-24T01:23:11.751Z,10.7
2022-12-24T01:33:44.097Z,10.5
2022-12-24T01:38:54.799Z,10.5
2022-12-24T01:44:07.630Z,10.5
2022-12-24T01:49:17.474Z,10.4
2022-12-24T01:59:52.758Z,10.4
2022-12-24T02:10:25.184Z,10.5
2022-12-24T02:21:09.319Z,10.5
2022-12-24T02:42:30.942Z,10.6
2022-12-24T02:47:42.270Z,10.7
2022-12-24T02:52:53.328Z,10.5
2022-12-24T02:58:05.025Z,10.4
2022-12-24T03:08:39.099Z,10.4
2022-12-24T03:13:49.020Z,10.3
2022-12-24T03:35:05.360Z,9.9
2022-12-24T03:40:15.659Z,9.7
2022-12-24T03:45:25.375Z,9.4
2022-12-24T03:50:42.326Z,9.4
2022-12-24T03:55:53.121Z,9.1
2022-12-24T04:01:04.684Z,9
2022-12-24T04:11:38.125Z,8.7
2022-12-24T04:16:49.913Z,8.5
2022-12-24T04:22:01.082Z,8.3
2022-12-24T04:27:12.913Z,8.1
2022-12-24T04:32:24.327Z,8
2022-12-24T04:37:35.958Z,8
2022-12-24T04:42:47.166Z,7.9
2022-12-24T04:47:58.356Z,7.9
2022-12-24T04:53:09.655Z,8
2022-12-24T04:58:22.102Z,8.2
2022-12-24T05:03:33.973Z,8.3
2022-12-24T05:14:08.860Z,8.2
2022-12-24T05:19:17.788Z,7.9
2022-12-24T05:24:31.081Z,7.7
2022-12-24T05:29:42.651Z,7.6
2022-12-24T05:40:14.881Z,7.6
2022-12-24T05:45:26.967Z,7.3
2022-12-24T05:50:38.535Z,7.3
2022-12-24T05:55:54.833Z,7.3
2022-12-24T06:01:03.960Z,7.2
2022-12-24T06:06:17.122Z,7.2
2022-12-24T06:16:49.565Z,7.2
2022-12-24T06:27:22.297Z,7.1
2022-12-24T06:32:33.987Z,6.9
2022-12-24T06:37:46.588Z,7
2022-12-24T06:42:56.647Z,7.1
2022-12-24T06:53:29.341Z,7
2022-12-24T06:58:39.342Z,7
2022-12-24T07:09:13.144Z,6.9
2022-12-24T07:14:24.884Z,6.8
2022-12-24T07:19:36.803Z,6.8
2022-12-24T07:24:47.843Z,6.8
2022-12-24T07:29:59.242Z,6.8
2022-12-24T07:35:08.558Z,6.7
2022-12-24T07:51:07.207Z,6.7
2022-12-24T07:56:17.988Z,6.4
2022-12-24T08:01:30.207Z,6.3
2022-12-24T08:06:42.186Z,6.3
2022-12-24T08:11:53.533Z,6.2
2022-12-24T08:22:27.566Z,6.1
2022-12-24T08:27:37.490Z,6.2
2022-12-24T08:32:51.074Z,6.1
2022-12-24T08:38:04.985Z,6.1
2022-12-24T08:43:16.391Z,6.1
2022-12-24T08:48:29.453Z,6
2022-12-24T08:53:40.455Z,6
2022-12-24T08:58:52.595Z,5.9
2022-12-24T09:14:49.283Z,5.9
2022-12-24T09:19:59.892Z,6
2022-12-24T09:25:11.831Z,6
2022-12-24T09:30:23.728Z,6.2
2022-12-24T09:35:34.993Z,6.2
2022-12-24T09:40:45.111Z,6.2
2022-12-24T09:46:01.863Z,6
2022-12-24T09:51:08.418Z,6
2022-12-24T09:56:24.244Z,6
2022-12-24T10:01:36.596Z,6
2022-12-24T10:06:47.750Z,5.9
2022-12-24T10:11:59.596Z,5.9
2022-12-24T10:22:33.953Z,5.9
2022-12-24T10:33:07.947Z,5.9
2022-12-24T10:38:18.443Z,6
2022-12-24T10:43:30.245Z,6
2022-12-24T10:54:04.486Z,6.1
2022-12-24T10:59:12.996Z,6.1
2022-12-24T11:09:47.319Z,6.1
2022-12-24T11:25:42.249Z,6.3
2022-12-24T11:41:38.283Z,6.6
2022-12-24T11:46:49.949Z,6.5
2022-12-24T11:52:05.603Z,6.5
2022-12-24T11:57:13.569Z,6.5
2022-12-24T12:02:25.190Z,6.6
2022-12-24T12:07:36.227Z,6.6
2022-12-24T12:12:48.334Z,6.6
2022-12-24T12:18:04.900Z,6.6
2022-12-24T12:23:20.554Z,6.6
2022-12-24T12:28:38.591Z,6.6
2022-12-24T12:33:51.832Z,6.6
2022-12-24T12:49:47.193Z,6.7
2022-12-24T12:54:57.347Z,6.8
2022-12-24T13:05:30.376Z,6.8
2022-12-24T13:16:05.714Z,6.9
2022-12-24T13:21:17.642Z,6.9
2022-12-24T13:31:59.763Z,6.9
2022-12-24T13:37:10.791Z,6.9
2022-12-24T13:42:22.671Z,7
2022-12-24T13:47:37.230Z,7.1
2022-12-24T13:58:08.670Z,7.2
2022-12-24T14:03:21.798Z,7.2
2022-12-24T14:08:32.063Z,7.1
2022-12-24T14:13:43.585Z,7.2
2022-12-24T14:18:53.304Z,7.2
2022-12-24T14:24:04.647Z,7.2
2022-12-24T14:29:25.479Z,7.2
2022-12-24T14:34:36.631Z,7.2
2022-12-24T14:39:49.284Z,7.2
2022-12-24T14:45:01.525Z,7.2
2022-12-24T14:55:34.203Z,7.2
2022-12-24T15:00:46.683Z,7.1
2022-12-24T15:06:11.393Z,7.1
2022-12-24T15:11:24.840Z,7
2022-12-24T15:16:54.124Z,7
2022-12-24T15:22:02.891Z,7
2022-12-24T15:27:14.124Z,7
2022-12-24T15:32:31.191Z,7
2022-12-24T15:37:43.635Z,7
2022-12-24T15:42:54.853Z,6.9
2022-12-24T15:48:13.493Z,6.9
2022-12-24T15:53:26.025Z,6.8
2022-12-24T15:58:38.344Z,6.8
2022-12-24T16:03:50.524Z,6.8
2022-12-24T16:08:58.234Z,6.7
2022-12-24T16:14:08.643Z,6.8
2022-12-24T16:24:42.126Z,6.8
2022-12-24T16:30:02.223Z,6.8
2022-12-24T16:35:11.661Z,6.7
2022-12-24T16:40:28.528Z,6.7
2022-12-24T16:45:33.590Z,6.7
2022-12-24T16:50:45.656Z,6.6
2022-12-24T16:55:58.527Z,6.6
2022-12-24T17:06:31.053Z,6.7
2022-12-24T17:11:42.777Z,6.6
2022-12-24T17:16:54.708Z,6.6
2022-12-24T17:27:27.568Z,6.5
2022-12-24T17:32:43.783Z,6.5
2022-12-24T17:37:59.864Z,6.5
2022-12-24T17:43:12.253Z,6.4
2022-12-24T17:53:45.586Z,6.5
2022-12-24T17:58:58.158Z,6.5
2022-12-24T18:04:15.556Z,6.5
2022-12-24T18:14:53.672Z,6.6
2022-12-24T18:25:26.368Z,6.6
2022-12-24T18:30:42.936Z,6.6
2022-12-24T18:35:53.985Z,6.5
2022-12-24T18:41:09.828Z,6.5
2022-12-24T18:46:24.851Z,6.5
2022-12-24T18:56:58.833Z,6.6
2022-12-24T19:02:15.239Z,6.6
2022-12-24T19:07:30.545Z,6.6
2022-12-24T19:18:07.382Z,6.6
2022-12-24T19:28:43.804Z,6.6
2022-12-24T19:33:59.627Z,6.6
2022-12-24T19:39:10.733Z,6.6
2022-12-24T19:44:21.334Z,6.5
2022-12-24T19:49:37.639Z,6.5
2022-12-24T19:54:53.586Z,6.5
2022-12-24T20:00:15.910Z,6.5
2022-12-24T20:05:20.911Z,6.6
2022-12-24T20:15:57.090Z,6.5
2022-12-24T20:21:10.647Z,6.5
2022-12-24T20:26:27.170Z,6.5
2022-12-24T20:31:39.550Z,6.4
2022-12-24T20:36:50.558Z,6.5
2022-12-24T20:47:27.838Z,6.5
2022-12-24T20:52:43.049Z,6.5
2022-12-24T20:57:55.566Z,6.6
2022-12-24T21:03:10.308Z,6.6
2022-12-24T21:08:25.470Z,6.6
2022-12-24T21:13:37.020Z,6.5
2022-12-24T21:24:13.756Z,6.5
2022-12-24T21:29:23.016Z,6.4
2022-12-24T21:34:38.530Z,6.4
2022-12-24T21:39:51.003Z,6.4
2022-12-24T21:50:32.835Z,6.4
2022-12-24T21:55:46.530Z,6.4
2022-12-24T22:00:57.186Z,6.4
2022-12-24T22:06:12.295Z,6.4
2022-12-24T22:11:29.372Z,6.4
2022-12-24T22:16:45.874Z,6.4
2022-12-24T22:21:57.479Z,6.3
2022-12-24T22:27:14.442Z,6.3
2022-12-24T22:32:25.259Z,6.4
2022-12-24T22:53:42.736Z,6.4
2022-12-24T23:09:42.448Z,6.4
2022-12-24T23:14:54.401Z,6.3
2022-12-24T23:20:08.846Z,6.3
2022-12-24T23:25:24.656Z,6.3
2022-12-24T23:30:36.411Z,6.3
2022-12-24T23:51:54.732Z,6.3
